Time;durP1;ratioP1;P1;durP2;ratioP2;P2;SDS_P1;SDS_P2;PMS_P1;PMS_P2;Temp;Humidity;BMP_temperature;BMP_pressure;BME280_temperature;BME280_humidity;BME280_pressure;Samples;Min_cycle;Max_cycle;Signal;HPM_P1;HPM_P2
2022/05/14 00:01:36;;;;;;;;;10.00;8.00;;;;;14.53;75.94;100733.38;5055534;28;46381;-68
2022/05/14 00:04:03;;;;;;;;;8.33;6.67;;;;;14.51;75.65;100730.72;5055342;28;45385;-68
2022/05/14 00:06:30;;;;;;;;;8.67;7.00;;;;;14.49;75.41;100728.94;5055816;28;45392;-68
2022/05/14 00:08:56;;;;;;;;;8.00;7.33;;;;;14.45;75.53;100717.47;5055897;28;45521;-68
2022/05/14 00:14:09;;;;;;;;;6.33;6.33;;;;;14.40;75.81;100711.25;5054075;28;45774;-68
2022/05/14 00:16:36;;;;;;;;;5.67;5.67;;;;;14.39;76.08;100703.34;5055365;28;45493;-69
2022/05/14 00:19:04;;;;;;;;;10.00;9.00;;;;;14.42;76.27;100709.53;5056196;28;45983;-68
2022/05/14 00:21:30;;;;;;;;;6.33;5.67;;;;;14.43;76.14;100698.16;5055510;28;45370;-68
2022/05/14 00:23:58;;;;;;;;;7.33;7.00;;;;;14.45;76.26;100696.44;5055210;28;45390;-68
2022/05/14 00:26:24;;;;;;;;;9.00;7.00;;;;;14.45;76.07;100691.19;5055381;28;45505;-68
2022/05/14 00:28:50;;;;;;;;;6.00;5.67;;;;;14.39;76.11;100680.59;5048104;28;45521;-68
2022/05/14 00:31:16;;;;;;;;;7.00;6.00;;;;;14.42;75.45;100679.75;5058709;28;46269;-68
2022/05/14 00:33:42;;;;;;;;;8.00;7.00;;;;;14.37;76.06;100684.94;5057487;28;45588;-68
2022/05/14 00:36:08;;;;;;;;;8.00;7.00;;;;;14.38;76.53;100678.78;5058897;28;45429;-68
2022/05/14 00:38:33;;;;;;;;;8.33;7.00;;;;;14.29;76.41;100652.38;5059019;28;45370;-69
2022/05/14 00:41:05;;;;;;;;;5.67;5.00;;;;;14.41;76.18;100668.34;5058908;28;46174;-68
2022/05/14 00:43:31;;;;;;;;;7.67;7.00;;;;;14.41;75.49;100667.47;5058959;28;45500;-68
2022/05/14 00:46:15;;;;;;;;;7.00;6.00;;;;;14.39;75.68;100666.56;5058967;28;45529;-68
2022/05/14 00:48:43;;;;;;;;;7.00;7.00;;;;;14.39;75.77;100661.31;5056253;28;45439;-68
2022/05/14 00:51:17;;;;;;;;;7.00;5.67;;;;;14.28;75.43;100647.97;5058290;28;46213;-68
2022/05/14 00:53:51;;;;;;;;;6.00;5.00;;;;;14.36;75.14;100656.88;5056202;28;45527;-68
2022/05/14 00:56:21;;;;;;;;;6.67;6.67;;;;;14.33;75.29;100659.47;5059970;28;45332;-69
2022/05/14 00:58:54;;;;;;;;;6.33;6.00;;;;;14.32;75.39;100660.31;5060109;28;45454;-69
2022/05/14 01:01:20;;;;;;;;;6.00;5.33;;;;;14.30;74.80;100651.50;5059532;28;45445;-68
2022/05/14 01:03:46;;;;;;;;;6.00;6.00;;;;;14.11;75.03;100632.81;5059947;28;45540;-68
2022/05/14 01:06:16;;;;;;;;;7.67;6.67;;;;;14.20;75.38;100655.72;5058818;28;45370;-68
2022/05/14 01:08:43;;;;;;;;;6.67;6.00;;;;;14.19;75.61;100655.72;5060188;28;45348;-69
2022/05/14 01:11:11;;;;;;;;;7.33;6.00;;;;;14.09;76.14;100645.03;5075483;28;45478;-68
2022/05/14 01:13:37;;;;;;;;;9.00;7.00;;;;;14.16;76.07;100653.03;5059638;28;45447;-68
2022/05/14 01:16:04;;;;;;;;;7.33;6.67;;;;;14.11;75.72;100653.84;5059825;28;45333;-69
2022/05/14 01:18:33;;;;;;;;;6.67;6.00;;;;;14.04;75.42;100656.31;5060205;28;45370;-68
2022/05/14 01:21:03;;;;;;;;;5.00;5.00;;;;;13.94;76.47;100655.28;5059928;28;46194;-68
2022/05/14 01:26:27;;;;;;;;;7.00;6.00;;;;;13.86;76.44;100651.63;5059896;28;45230;-69
2022/05/14 01:26:29;;;;;;;;;6.33;5.67;;;;;13.86;76.53;100647.25;5059609;27;45409;-68
2022/05/14 01:29:01;;;;;;;;;6.00;5.00;;;;;13.86;76.92;100641.13;5059725;28;45583;-68
2022/05/14 01:31:28;;;;;;;;;7.00;7.00;;;;;13.89;76.96;100646.44;5059463;28;45477;-68
2022/05/14 01:33:58;;;;;;;;;5.67;5.67;;;;;13.92;76.29;100638.59;5059558;28;45459;-68
2022/05/14 01:36:23;;;;;;;;;5.00;5.00;;;;;13.90;76.10;100633.31;5059646;28;45466;-68
2022/05/14 01:38:49;;;;;;;;;7.00;7.00;;;;;13.78;75.91;100605.97;5059297;28;45488;-68
2022/05/14 01:41:14;;;;;;;;;9.67;7.00;;;;;13.93;76.48;100632.50;5058557;28;45532;-68
2022/05/14 01:43:40;;;;;;;;;6.00;6.00;;;;;13.93;76.47;100635.13;5058142;28;45693;-68
2022/05/14 01:46:06;;;;;;;;;7.00;6.67;;;;;13.91;76.54;100623.72;5059564;28;45425;-69
2022/05/14 01:48:32;;;;;;;;;6.00;6.00;;;;;13.89;76.41;100626.31;5059745;28;45418;-68
2022/05/14 01:50:58;;;;;;;;;6.00;5.00;;;;;13.82;75.76;100602.53;5058248;28;45957;-68
2022/05/14 01:53:23;;;;;;;;;6.00;5.00;;;;;13.90;75.42;100614.94;5059227;28;45509;-68
2022/05/14 01:55:49;;;;;;;;;6.00;6.00;;;;;13.79;76.27;100590.25;5059426;28;45334;-68
2022/05/14 02:00:58;;;;;;;;;6.67;6.00;;;;;13.77;76.17;100580.56;5059088;28;45240;-68
2022/05/14 02:03:24;;;;;;;;;7.00;7.00;;;;;13.89;75.94;100601.81;5058974;28;45398;-68
2022/05/14 02:05:50;;;;;;;;;5.67;5.00;;;;;13.88;75.78;100607.91;5059160;28;45499;-68
2022/05/14 02:08:15;;;;;;;;;6.00;5.67;;;;;13.87;75.62;100611.41;5059168;28;45634;-68
2022/05/14 02:10:41;;;;;;;;;6.00;6.00;;;;;13.77;75.75;100594.59;5059738;28;45460;-69
2022/05/14 02:13:07;;;;;;;;;6.00;5.00;;;;;13.81;76.20;100611.28;5041732;28;45604;-70
2022/05/14 02:15:32;;;;;;;;;6.00;6.00;;;;;13.66;75.49;100577.75;5059445;28;45397;-69
2022/05/14 02:17:58;;;;;;;;;7.00;6.00;;;;;13.67;76.10;100606.66;5059291;28;45484;-69
2022/05/14 02:20:24;;;;;;;;;7.33;7.00;;;;;13.57;76.96;100591.63;5058698;28;45948;-69
2022/05/14 02:22:51;;;;;;;;;9.33;8.00;;;;;13.52;77.51;100591.50;5058622;28;45560;-69
2022/05/14 02:25:19;;;;;;;;;8.00;7.67;;;;;13.54;77.83;100602.03;5058726;28;45454;-69
2022/05/14 02:27:45;;;;;;;;;8.00;7.00;;;;;13.56;77.73;100592.44;5058863;28;45525;-69
2022/05/14 02:30:12;;;;;;;;;7.00;6.00;;;;;13.59;77.57;100603.03;5057209;28;45592;-69
2022/05/14 02:32:38;;;;;;;;;6.67;6.67;;;;;13.50;77.17;100579.22;5058548;28;45607;-69
2022/05/14 02:35:05;;;;;;;;;6.67;6.67;;;;;13.53;76.88;100585.41;5058891;28;45529;-68
2022/05/14 02:37:31;;;;;;;;;7.00;6.00;;;;;13.58;77.15;100601.25;5058638;28;45466;-69
2022/05/14 02:39:57;;;;;;;;;6.00;5.67;;;;;13.54;77.20;100586.28;5058235;28;46066;-69
2022/05/14 02:42:23;;;;;;;;;5.33;5.00;;;;;13.66;76.73;100601.38;5058087;28;45501;-69
2022/05/14 02:44:49;;;;;;;;;5.00;5.00;;;;;13.67;76.39;100590.91;5058386;28;45233;-69
2022/05/14 02:47:15;;;;;;;;;7.00;6.00;;;;;13.64;76.48;100585.59;5058598;28;45473;-69
2022/05/14 02:49:41;;;;;;;;;6.00;6.00;;;;;13.65;76.31;100587.38;5058352;28;46180;-69
2022/05/14 02:52:07;;;;;;;;;6.50;6.50;;;;;13.65;77.00;100579.50;5058981;28;45193;-69
2022/05/14 02:54:34;;;;;;;;;7.50;7.00;;;;;13.56;76.85;100553.09;5058267;28;46036;-69
2022/05/14 02:57:00;;;;;;;;;7.67;5.67;;;;;13.65;77.28;100562.88;5058422;28;45525;-69
2022/05/14 02:59:26;;;;;;;;;3.33;3.00;;;;;13.69;76.59;100567.34;5058069;28;45986;-69
2022/05/14 03:01:52;;;;;;;;;5.00;5.00;;;;;13.68;76.72;100563.78;5058292;28;45457;-69
2022/05/14 03:04:22;;;;;;;;;8.00;7.00;;;;;13.71;76.90;100576.13;5058551;28;45443;-69
2022/05/14 03:06:49;;;;;;;;;5.67;5.67;;;;;13.51;76.22;100533.78;5058758;28;45473;-69
2022/05/14 03:09:15;;;;;;;;;7.67;6.00;;;;;13.60;76.40;100565.41;5058136;28;45421;-69
2022/05/14 03:11:41;;;;;;;;;6.33;6.33;;;;;13.47;76.36;100545.06;5057979;28;45418;-69
2022/05/14 03:14:07;;;;;;;;;6.00;6.00;;;;;13.52;76.39;100557.38;5058360;28;45358;-69
2022/05/14 03:16:32;;;;;;;;;7.33;7.00;;;;;13.45;76.61;100566.03;5057933;28;45485;-69
2022/05/14 03:18:58;;;;;;;;;7.00;6.00;;;;;13.40;77.06;100562.41;5058687;28;46070;-69
2022/05/14 03:21:23;;;;;;;;;7.67;7.67;;;;;13.41;77.08;100560.66;5057829;28;45435;-69
2022/05/14 03:23:49;;;;;;;;;8.00;7.00;;;;;13.41;77.46;100561.56;5058047;28;45577;-69
2022/05/14 03:26:15;;;;;;;;;7.33;6.67;;;;;13.42;77.73;100565.06;5058196;28;45411;-69
2022/05/14 03:28:41;;;;;;;;;9.00;7.00;;;;;13.36;77.61;100547.47;5057810;28;46019;-69
2022/05/14 03:31:06;;;;;;;;;7.00;6.33;;;;;13.36;77.46;100557.97;5058433;28;45532;-68
2022/05/14 03:33:32;;;;;;;;;7.33;7.00;;;;;13.43;77.92;100573.00;5057967;28;45416;-69
2022/05/14 03:35:58;;;;;;;;;5.33;5.33;;;;;13.42;78.24;100563.31;5058808;28;45492;-69
2022/05/14 03:38:24;;;;;;;;;7.00;6.00;;;;;13.42;77.83;100560.72;5057741;28;45607;-69
2022/05/14 03:40:51;;;;;;;;;7.67;7.00;;;;;13.41;78.15;100564.19;5058183;28;45481;-70
2022/05/14 03:43:17;;;;;;;;;7.33;7.00;;;;;13.43;77.74;100556.34;5057474;28;45469;-69
2022/05/14 03:45:42;;;;;;;;;10.00;9.00;;;;;13.41;77.49;100552.78;5059427;28;45395;-69
2022/05/14 03:48:08;;;;;;;;;7.00;6.00;;;;;13.42;77.17;100555.47;5075904;28;47425;-69
2022/05/14 03:50:34;;;;;;;;;7.00;6.67;;;;;13.40;76.76;100540.56;5057488;28;45500;-69
2022/05/14 03:52:59;;;;;;;;;7.00;7.00;;;;;13.37;76.42;100550.97;5057508;28;45450;-69
2022/05/14 03:55:26;;;;;;;;;7.00;7.00;;;;;13.33;77.18;100540.44;5057513;28;45449;-69
2022/05/14 03:57:52;;;;;;;;;7.00;7.00;;;;;13.30;77.60;100535.13;5057836;28;46021;-70
2022/05/14 04:00:19;;;;;;;;;7.00;6.00;;;;;13.25;77.63;100521.03;5057620;28;45349;-69
2022/05/14 04:02:45;;;;;;;;;12.00;8.33;;;;;13.26;77.85;100511.41;5056714;28;45496;-70
2022/05/14 04:05:11;;;;;;;;;7.00;7.00;;;;;13.34;77.96;100533.44;5056620;28;45548;-69
2022/05/14 04:07:38;;;;;;;;;7.00;7.00;;;;;13.33;78.33;100529.06;5059012;28;45437;-69
2022/05/14 04:10:04;;;;;;;;;7.50;7.00;;;;;13.35;78.50;100521.19;5057935;28;45550;-69
2022/05/14 04:12:30;;;;;;;;;7.67;7.00;;;;;13.34;77.65;100517.69;5057851;28;45480;-69
2022/05/14 04:14:58;;;;;;;;;8.75;7.25;;;;;13.26;77.30;100516.66;5058736;28;45447;-69
2022/05/14 04:17:25;;;;;;;;;6.00;5.67;;;;;13.21;77.27;100513.03;5056362;28;45598;-69
2022/05/14 04:19:50;;;;;;;;;7.33;7.00;;;;;13.17;77.48;100512.13;5057653;28;45534;-69
2022/05/14 04:22:17;;;;;;;;;8.33;8.00;;;;;13.13;79.02;100502.44;5058107;28;45488;-70
2022/05/14 04:24:43;;;;;;;;;8.00;7.00;;;;;13.17;78.60;100508.59;5057872;28;45609;-69
2022/05/14 04:27:09;;;;;;;;;6.00;6.00;;;;;13.19;78.80;100499.91;5057508;28;46100;-69
2022/05/14 04:29:34;;;;;;;;;6.00;6.00;;;;;13.23;78.53;100501.75;5055638;28;45409;-69
2022/05/14 04:32:00;;;;;;;;;8.00;7.00;;;;;13.18;78.71;100490.28;5056519;28;45395;-69
2022/05/14 04:34:25;;;;;;;;;7.33;7.33;;;;;13.24;78.22;100500.88;5059200;28;45454;-74
2022/05/14 04:36:51;;;;;;;;;7.33;7.33;;;;;13.28;77.54;100494.81;5055015;28;45514;-69
2022/05/14 04:39:17;;;;;;;;;7.00;6.00;;;;;13.41;77.13;100516.06;5055485;28;45490;-70
2022/05/14 05:01:29;;;;;;;;;8.00;7.00;;;;;13.43;77.50;100501.22;5132351;27;45244;-70
2022/05/14 05:03:54;;;;;;;;;8.00;7.00;;;;;13.61;76.72;100511.16;5114925;27;45189;-70
2022/05/14 05:06:23;;;;;;;;;7.00;7.00;;;;;13.68;76.01;100490.28;5115167;27;45542;-70
2022/05/14 05:08:51;;;;;;;;;8.00;8.00;;;;;13.77;75.94;100494.81;5115346;27;45342;-71
2022/05/14 05:11:18;;;;;;;;;6.33;6.33;;;;;13.85;76.03;100497.59;5114933;27;46232;-71
2022/05/14 05:13:44;;;;;;;;;7.33;7.00;;;;;13.92;76.07;100500.28;5115188;27;45413;-71
2022/05/14 05:16:10;;;;;;;;;8.00;7.33;;;;;14.04;75.53;100499.59;5115051;27;45238;-69
2022/05/14 05:18:36;;;;;;;;;6.00;5.00;;;;;14.18;74.92;100509.44;5115151;27;45673;-70
2022/05/14 05:21:06;;;;;;;;;7.00;6.33;;;;;14.28;74.65;100501.72;5114449;27;46076;-71
2022/05/14 05:23:32;;;;;;;;;8.67;7.00;;;;;14.30;74.19;100480.72;5114490;27;45356;-71
2022/05/14 05:25:58;;;;;;;;;8.33;7.00;;;;;14.37;74.10;100474.69;5114689;27;45766;-70
2022/05/14 05:28:26;;;;;;;;;9.67;9.33;;;;;14.60;73.07;100498.66;5113454;27;45435;-70
2022/05/14 05:30:52;;;;;;;;;9.67;8.00;;;;;14.69;73.02;100496.16;5114126;27;46212;-71
2022/05/14 05:33:22;;;;;;;;;7.67;7.00;;;;;14.80;72.95;100498.94;5114755;27;45427;-71
2022/05/14 05:35:48;;;;;;;;;8.00;7.33;;;;;14.90;72.59;100498.16;5130791;27;45607;-71
2022/05/14 05:38:15;;;;;;;;;8.00;8.00;;;;;14.97;72.21;100488.59;5114713;27;45499;-70
2022/05/14 05:40:41;;;;;;;;;7.67;6.67;;;;;15.05;72.15;100492.19;5114296;27;45291;-71
2022/05/14 05:43:09;;;;;;;;;8.00;7.67;;;;;15.17;71.67;100498.44;5114376;27;45694;-70
2022/05/14 05:45:36;;;;;;;;;6.00;6.00;;;;;15.28;71.44;100497.69;5114415;27;45387;-71
2022/05/14 05:48:02;;;;;;;;;10.00;9.00;;;;;15.40;71.34;100498.66;5112996;27;45393;-72
2022/05/14 05:50:28;;;;;;;;;15.50;15.00;;;;;15.55;70.80;100495.31;5113957;27;45343;-71
2022/05/14 05:52:54;;;;;;;;;8.00;8.00;;;;;15.69;70.59;100493.66;5114042;27;45473;-71
2022/05/14 05:58:07;;;;;;;;;9.67;9.00;;;;;16.02;69.62;100490.44;5114280;27;45214;-72
2022/05/14 06:00:33;;;;;;;;;10.00;9.00;;;;;16.22;69.36;100484.41;5110179;27;46222;-72
2022/05/14 06:02:59;;;;;;;;;8.00;8.00;;;;;16.34;68.88;100467.78;5099874;27;45448;-72
2022/05/14 06:05:26;;;;;;;;;9.67;7.67;;;;;16.67;67.89;100482.88;5100545;27;45310;-72
2022/05/14 06:07:53;;;;;;;;;7.00;7.00;;;;;16.92;67.97;100483.00;5102524;27;45530;-73
2022/05/14 06:10:21;;;;;;;;;8.33;7.33;;;;;17.69;65.85;100482.22;5100460;27;46039;-73
2022/05/14 06:12:47;;;;;;;;;8.67;8.00;;;;;19.35;61.96;100482.56;5100067;27;45502;-71
2022/05/14 06:15:17;;;;;;;;;6.33;6.00;;;;;20.96;57.49;100470.31;5101801;27;45348;-70
2022/05/14 06:17:45;;;;;;;;;6.33;5.33;;;;;22.29;52.65;100458.41;5083433;27;45303;-71
2022/05/14 06:20:17;;;;;;;;;7.33;7.00;;;;;23.60;50.25;100467.06;5099807;27;45435;-71
2022/05/14 06:22:43;;;;;;;;;11.00;9.33;;;;;24.80;47.81;100458.47;5101682;27;45261;-70
2022/05/14 06:25:09;;;;;;;;;9.67;8.67;;;;;25.87;44.93;100455.06;5103944;27;45510;-70
2022/05/14 06:27:35;;;;;;;;;5.67;5.67;;;;;26.84;42.22;100452.44;5100263;27;45282;-70
2022/05/14 06:30:01;;;;;;;;;5.33;5.33;;;;;27.69;42.14;100457.94;5100544;27;45473;-70
2022/05/14 06:32:27;;;;;;;;;6.33;5.33;;;;;28.68;39.02;100453.63;5100588;27;45460;-71
2022/05/14 06:34:53;;;;;;;;;7.33;6.00;;;;;29.71;37.54;100446.81;5101152;27;45446;-71
2022/05/14 06:37:19;;;;;;;;;9.00;7.00;;;;;30.65;35.24;100433.75;5101194;27;45483;-70
2022/05/14 06:39:45;;;;;;;;;8.33;7.00;;;;;31.69;33.98;100444.97;5101913;27;46229;-69
2022/05/14 06:42:13;;;;;;;;;8.67;7.67;;;;;32.52;33.02;100442.59;5100952;27;45370;-69
2022/05/14 06:44:38;;;;;;;;;7.67;6.67;;;;;33.15;31.59;100443.09;5095632;27;45470;-73
2022/05/14 06:47:04;;;;;;;;;8.00;6.33;;;;;33.56;30.67;100442.16;5098692;27;45455;-71
2022/05/14 06:49:30;;;;;;;;;7.33;7.33;;;;;33.77;30.27;100438.03;5097910;27;46254;-71
2022/05/14 06:52:00;;;;;;;;;6.67;6.33;;;;;33.63;30.35;100436.28;5099203;27;45359;-70
2022/05/14 06:54:26;;;;;;;;;7.33;7.00;;;;;32.97;30.74;100431.63;5098901;27;45358;-73
2022/05/14 06:56:52;;;;;;;;;8.00;8.00;;;;;32.64;31.81;100435.56;5101293;27;45413;-70
2022/05/14 06:59:17;;;;;;;;;8.00;6.00;;;;;32.68;31.65;100431.69;5098782;27;46265;-71
2022/05/14 07:01:46;;;;;;;;;7.00;6.00;;;;;32.43;31.83;100427.84;5098704;27;45727;-71
2022/05/14 07:07:03;;;;;;;;;6.00;5.67;;;;;33.38;30.15;100430.75;5099529;27;45321;-70
2022/05/14 07:09:29;;;;;;;;;7.67;6.67;;;;;34.10;29.74;100428.50;5098609;27;45419;-74
2022/05/14 07:12:03;;;;;;;;;8.33;7.33;;;;;34.36;29.69;100424.00;5098354;27;45503;-70
2022/05/14 07:14:30;;;;;;;;;7.00;6.00;;;;;34.49;29.39;100412.25;5098345;27;45484;-71
2022/05/14 07:16:56;;;;;;;;;6.67;6.67;;;;;34.53;29.67;100413.78;5100192;27;45287;-70
2022/05/14 07:19:23;;;;;;;;;7.00;7.00;;;;;34.67;29.05;100419.06;5099447;27;46071;-70
2022/05/14 07:21:50;;;;;;;;;5.33;5.33;;;;;35.05;28.78;100407.22;5099170;27;45396;-70
2022/05/14 07:24:25;;;;;;;;;7.00;7.00;;;;;35.24;28.27;100414.91;5099040;27;45485;-70
2022/05/14 07:26:53;;;;;;;;;6.67;6.33;;;;;35.67;27.89;100399.88;5099533;27;45267;-71
2022/05/14 07:29:21;;;;;;;;;6.33;6.00;;;;;35.83;28.12;100395.88;5098434;27;45295;-70
2022/05/14 07:31:48;;;;;;;;;8.00;7.33;;;;;35.51;28.21;100346.69;5098946;27;45623;-70
2022/05/14 07:34:14;;;;;;;;;7.00;6.67;;;;;35.80;27.50;100382.50;5098931;27;45476;-70
2022/05/14 07:36:43;;;;;;;;;6.00;5.67;;;;;35.78;28.19;100397.22;5098801;27;45375;-70
2022/05/14 07:39:08;;;;;;;;;7.67;7.33;;;;;36.88;26.62;100387.47;5098436;27;45466;-71
2022/05/14 07:41:38;;;;;;;;;6.00;5.67;;;;;38.32;25.42;100397.91;5098511;27;45546;-71
2022/05/14 07:44:07;;;;;;;;;6.00;6.00;;;;;39.32;23.79;100395.16;5099454;27;45379;-71
2022/05/14 07:46:35;;;;;;;;;5.00;5.00;;;;;40.10;23.45;100386.84;5100329;27;45218;-71
2022/05/14 07:49:04;;;;;;;;;6.33;6.33;;;;;40.69;22.14;100386.59;5098927;27;45305;-71
2022/05/14 07:51:31;;;;;;;;;6.67;6.67;;;;;41.14;21.46;100378.38;5098641;27;45317;-71
2022/05/14 07:53:56;;;;;;;;;7.00;6.33;;;;;41.58;21.60;100380.31;5099565;27;45525;-71
2022/05/14 07:56:23;;;;;;;;;7.00;7.00;;;;;42.23;20.35;100384.56;5099613;27;45507;-71
2022/05/14 07:58:49;;;;;;;;;7.00;7.00;;;;;42.48;19.89;100378.19;5099167;27;45623;-71
2022/05/14 08:01:15;;;;;;;;;6.00;6.00;;;;;42.44;20.33;100371.31;5098582;27;45191;-71
2022/05/14 08:03:41;;;;;;;;;7.67;7.00;;;;;41.85;20.89;100373.00;5098551;27;45673;-71
2022/05/14 08:06:09;;;;;;;;;5.67;5.67;;;;;41.86;20.94;100344.53;5097543;27;45438;-71
2022/05/14 08:08:35;;;;;;;;;7.33;7.00;;;;;42.36;21.25;100353.91;5098752;27;45403;-71
2022/05/14 08:11:01;;;;;;;;;7.33;7.33;;;;;42.78;20.37;100353.91;5098961;27;45376;-71
2022/05/14 08:13:27;;;;;;;;;6.00;5.33;;;;;42.87;20.15;100352.06;5099060;27;45309;-71
2022/05/14 08:15:53;;;;;;;;;6.67;6.67;;;;;43.02;20.30;100353.09;5098495;27;45416;-71
2022/05/14 08:18:19;;;;;;;;;8.00;8.00;;;;;42.91;19.88;100343.28;5097981;27;46658;-72
2022/05/14 08:20:47;;;;;;;;;7.33;7.33;;;;;42.79;20.04;100341.88;5097883;27;45237;-71
2022/05/14 08:26:00;;;;;;;;;6.33;6.33;;;;;42.64;20.83;100335.31;5098220;27;45299;-71
2022/05/14 08:28:26;;;;;;;;;7.00;6.67;;;;;42.65;20.63;100346.13;5093234;27;46465;-72
2022/05/14 08:30:52;;;;;;;;;5.67;5.67;;;;;42.56;21.65;100333.44;5085913;27;45480;-72
2022/05/14 08:33:19;;;;;;;;;7.67;6.67;;;;;42.12;21.35;100317.09;5077177;27;45258;-72
2022/05/14 08:35:46;;;;;;;;;8.00;8.00;;;;;41.95;22.54;100327.09;5076216;27;45542;-71
2022/05/14 08:38:15;;;;;;;;;6.33;5.67;;;;;41.76;22.40;100305.41;5075478;27;45507;-72
2022/05/14 08:40:55;;;;;;;;;8.33;8.00;;;;;41.40;22.51;100321.94;5076153;27;45442;-72
2022/05/14 08:43:31;;;;;;;;;7.00;7.00;;;;;40.80;23.51;100320.69;5076270;27;45441;-71
2022/05/14 08:45:57;;;;;;;;;8.00;7.00;;;;;40.46;23.67;100323.22;5076952;28;45711;-71
2022/05/14 08:48:31;;;;;;;;;10.00;10.00;;;;;40.40;24.38;100318.34;5076119;27;45447;-72
2022/05/14 08:51:03;;;;;;;;;8.33;7.67;;;;;40.46;24.31;100312.25;5076141;27;45395;-71
2022/05/14 08:53:30;;;;;;;;;9.00;6.67;;;;;40.55;24.45;100323.16;5076497;27;45328;-71
2022/05/14 08:56:14;;;;;;;;;7.67;7.67;;;;;40.74;23.76;100316.69;5075783;27;45385;-73
2022/05/14 08:58:58;;;;;;;;;10.33;10.00;;;;;40.71;24.19;100313.41;5073912;27;47189;-78
2022/05/14 09:01:28;;;;;;;;;6.33;6.33;;;;;40.61;24.12;100307.09;5075725;27;45429;-78
2022/05/14 09:03:54;;;;;;;;;9.00;8.00;;;;;40.61;23.85;100307.97;5074408;28;45496;-72
2022/05/14 09:06:20;;;;;;;;;8.33;8.33;;;;;40.50;24.35;100302.72;5075461;27;45654;-71
2022/05/14 09:08:45;;;;;;;;;8.33;8.00;;;;;40.00;25.45;100301.25;5075233;27;45632;-72
2022/05/14 09:11:28;;;;;;;;;8.67;8.67;;;;;39.63;26.12;100298.47;5074651;27;45877;-72
2022/05/14 09:14:00;;;;;;;;;8.67;8.67;;;;;39.18;26.42;100292.63;5075159;27;45620;-72
2022/05/14 09:16:38;;;;;;;;;10.00;10.00;;;;;38.68;27.31;100298.22;5075542;27;45309;-72
2022/05/14 09:19:15;;;;;;;;;9.00;9.00;;;;;38.48;27.69;100294.56;5074900;27;45496;-72
2022/05/14 09:21:50;;;;;;;;;10.00;10.00;;;;;38.71;27.82;100294.34;5074800;27;45434;-72
2022/05/14 09:24:25;;;;;;;;;10.33;9.67;;;;;39.14;27.08;100301.28;5076052;27;45452;-72
2022/05/14 09:26:53;;;;;;;;;9.67;9.67;;;;;39.91;26.21;100289.34;5076416;27;45576;-72
2022/05/14 09:29:24;;;;;;;;;10.00;10.00;;;;;39.45;26.92;100295.63;5075791;27;45563;-74
2022/05/14 09:31:59;;;;;;;;;10.33;9.33;;;;;38.47;28.37;100290.09;5076272;28;45400;-73
2022/05/14 09:34:27;;;;;;;;;10.00;9.00;;;;;37.82;28.64;100273.19;5077415;27;45470;-71
2022/05/14 09:36:53;;;;;;;;;11.00;11.00;;;;;37.60;28.99;100290.59;5078837;27;45264;-72
2022/05/14 09:39:23;;;;;;;;;9.67;9.67;;;;;37.65;28.93;100274.72;5080203;28;46058;-72
2022/05/14 09:41:52;;;;;;;;;11.67;11.00;;;;;38.19;28.71;100287.16;5080532;27;45405;-72
2022/05/14 09:44:25;;;;;;;;;12.67;12.33;;;;;38.56;27.83;100266.56;5080324;27;45710;-72
2022/05/14 09:47:03;;;;;;;;;13.33;12.67;;;;;38.99;27.21;100268.91;5079567;27;45637;-81
2022/05/14 09:49:29;;;;;;;;;14.67;13.00;;;;;39.12;26.81;100286.91;5079178;27;46131;-72
2022/05/14 09:52:04;;;;;;;;;11.67;11.00;;;;;39.01;27.39;100281.56;5079489;27;45310;-71
2022/05/14 09:54:43;;;;;;;;;11.33;11.33;;;;;38.87;27.52;100277.38;5079956;27;45265;-71
2022/05/14 09:57:36;;;;;;;;;13.33;13.00;;;;;38.84;27.74;100274.91;5079472;27;45435;-71
2022/05/14 10:00:12;;;;;;;;;12.00;11.00;;;;;38.87;27.46;100269.19;5079501;27;46246;-72
2022/05/14 10:02:56;;;;;;;;;11.67;11.67;;;;;39.13;27.46;100266.75;5080459;27;45363;-73
2022/05/14 10:05:39;;;;;;;;;10.33;10.00;;;;;39.64;26.02;100253.72;5079751;27;45335;-73
2022/05/14 10:08:26;;;;;;;;;11.00;10.00;;;;;40.13;25.86;100262.56;5079583;28;45400;-72
2022/05/14 10:11:47;;;;;;;;;10.00;9.67;;;;;40.65;24.79;100253.75;5078800;27;45567;-72
2022/05/14 10:14:32;;;;;;;;;11.00;11.00;;;;;41.43;23.36;100250.34;5073419;28;45391;-73
2022/05/14 10:17:06;;;;;;;;;9.00;9.00;;;;;41.54;24.44;100247.31;5079856;27;45386;-74
2022/05/14 10:19:34;;;;;;;;;13.67;13.00;;;;;41.86;25.19;100251.25;5080002;28;45493;-74
2022/05/14 10:22:18;;;;;;;;;13.33;12.67;;;;;41.80;23.96;100243.69;5079517;28;46215;-74
2022/05/14 10:27:52;;;;;;;;;11.67;11.00;;;;;40.68;24.11;100245.22;5079045;28;45524;-74
2022/05/14 10:30:48;;;;;;;;;15.67;15.67;;;;;41.23;25.42;100234.09;5078248;28;46208;-74
2022/05/14 10:33:20;;;;;;;;;10.67;10.67;;;;;41.72;24.53;100233.53;5079218;27;45373;-74
2022/05/14 10:36:10;;;;;;;;;9.67;9.67;;;;;41.67;24.85;100228.56;5079080;28;45541;-73
2022/05/14 10:38:47;;;;;;;;;10.33;9.33;;;;;41.37;22.92;100229.06;5079325;27;45482;-72
2022/05/14 10:41:26;;;;;;;;;11.00;11.00;;;;;41.04;23.21;100229.66;5079268;27;45361;-72
2022/05/14 10:44:08;;;;;;;;;9.33;9.33;;;;;40.64;25.14;100227.41;5078676;27;46237;-72
2022/05/14 10:46:35;;;;;;;;;10.33;10.33;;;;;40.06;24.71;100218.56;5078866;27;45341;-74
2022/05/14 10:49:18;;;;;;;;;11.33;11.33;;;;;39.76;25.30;100220.56;5078765;28;45411;-74
2022/05/14 10:51:48;;;;;;;;;10.00;10.00;;;;;39.76;26.40;100208.78;5079370;27;45245;-76
2022/05/14 10:54:25;;;;;;;;;10.67;10.33;;;;;39.49;26.89;100209.59;5078698;27;46170;-74
2022/05/14 10:57:01;;;;;;;;;11.00;11.00;;;;;39.16;27.01;100159.94;5077238;28;45392;-74
2022/05/14 10:59:38;;;;;;;;;11.67;11.67;;;;;39.34;27.62;100199.13;5093982;27;45255;-74
2022/05/14 11:02:15;;;;;;;;;12.00;12.00;;;;;39.43;27.69;100207.47;5078942;27;45361;-74
2022/05/14 11:04:42;;;;;;;;;12.33;12.00;;;;;39.40;28.12;100219.53;5076687;28;45476;-74
2022/05/14 11:07:24;;;;;;;;;12.67;12.00;;;;;39.28;28.16;100210.66;5078524;27;45532;-74
2022/05/14 11:09:50;;;;;;;;;12.00;11.67;;;;;39.07;28.44;100202.63;5083062;27;45483;-74
2022/05/14 11:12:19;;;;;;;;;10.33;9.67;;;;;38.99;28.69;100207.97;5078688;27;45362;-74
2022/05/14 11:14:51;;;;;;;;;14.00;14.00;;;;;38.73;28.50;100191.31;5078168;27;45578;-74
2022/05/14 11:17:19;;;;;;;;;11.00;11.00;;;;;38.71;28.93;100206.97;5078231;27;45334;-75
2022/05/14 11:19:45;;;;;;;;;12.67;12.00;;;;;38.56;29.27;100209.25;5078455;27;45347;-74
2022/05/14 11:22:23;;;;;;;;;11.67;11.67;;;;;38.38;28.86;100201.78;5078752;27;45492;-74
2022/05/14 11:24:50;;;;;;;;;12.67;12.00;;;;;38.27;29.07;100190.13;5078131;27;45211;-74
2022/05/14 11:27:38;;;;;;;;;13.00;12.33;;;;;38.29;28.75;100204.47;5078151;27;45316;-74
2022/05/14 11:30:12;;;;;;;;;14.00;13.00;;;;;38.14;28.92;100195.84;5078375;27;45315;-73
2022/05/14 11:32:47;;;;;;;;;13.00;12.33;;;;;38.11;29.39;100188.81;5078417;27;45563;-74
2022/05/14 11:35:13;;;;;;;;;11.00;10.67;;;;;38.07;29.00;100181.06;5076627;28;47775;-74
2022/05/14 11:37:46;;;;;;;;;10.00;10.00;;;;;37.99;28.84;100177.13;5093886;27;45429;-74
2022/05/14 11:40:21;;;;;;;;;12.00;12.00;;;;;37.92;28.96;100178.69;5076863;28;45243;-74
2022/05/14 11:43:09;;;;;;;;;12.00;11.67;;;;;37.87;29.30;100178.25;5078018;27;45220;-74
2022/05/14 11:45:39;;;;;;;;;12.00;12.00;;;;;37.79;28.78;100169.91;5078325;27;46088;-74
2022/05/14 11:48:07;;;;;;;;;14.00;14.00;;;;;37.77;28.65;100166.47;5079739;27;45455;-74
2022/05/14 11:51:20;;;;;;;;;9.67;9.33;;;;;37.67;28.96;100168.28;5084608;27;45239;-73
2022/05/14 11:54:05;;;;;;;;;12.67;12.67;;;;;37.68;28.70;100159.09;5044410;27;45314;-74
2022/05/14 11:56:53;;;;;;;;;9.33;9.33;;;;;37.70;28.99;100148.91;5077870;27;45421;-74
2022/05/14 11:59:24;;;;;;;;;12.00;11.00;;;;;37.77;28.92;100144.66;5076611;27;45466;-74
2022/05/14 12:01:52;;;;;;;;;12.67;11.00;;;;;37.70;28.88;100138.88;5077735;27;45394;-74
2022/05/14 12:04:29;;;;;;;;;12.67;12.00;;;;;37.60;29.16;100135.25;5078505;27;45528;-74
2022/05/14 12:07:02;;;;;;;;;10.00;10.00;;;;;37.35;29.08;100132.00;5077575;27;46380;-74
2022/05/14 12:09:49;;;;;;;;;9.00;8.33;;;;;36.90;29.48;100124.13;5077736;27;45560;-74